createdAt,value
2019-03-06T00:01:44.005Z,77.09
2019-03-06T00:04:10.229Z,76.74
2019-03-06T00:06:36.490Z,76.35
2019-03-06T00:12:16.615Z,75.84
2019-03-06T00:14:42.847Z,75.82
2019-03-06T00:17:09.079Z,76.76
2019-03-06T00:19:35.303Z,77.47
2019-03-06T00:22:01.551Z,77.53
2019-03-06T00:24:27.779Z,77.96
2019-03-06T00:26:54.029Z,78.67
2019-03-06T00:29:20.446Z,78.45
2019-03-06T00:31:46.683Z,78.44
2019-03-06T00:34:12.903Z,78.16
2019-03-06T00:36:39.144Z,78.56
2019-03-06T00:39:46.685Z,79.22
2019-03-06T00:42:12.933Z,79.11
2019-03-06T00:44:39.161Z,79.59
2019-03-06T00:47:05.405Z,78.51
2019-03-06T00:49:31.630Z,79.04
2019-03-06T00:51:57.881Z,79.06
2019-03-06T00:54:24.217Z,79.67
2019-03-06T00:56:50.459Z,79.81
2019-03-06T00:59:16.697Z,79.30
2019-03-06T01:01:42.956Z,79.48
2019-03-06T01:04:09.191Z,78.93
2019-03-06T01:06:35.423Z,79.56
2019-03-06T01:09:01.655Z,79.17
2019-03-06T01:11:27.876Z,79.44
2019-03-06T01:13:54.107Z,79.30
2019-03-06T01:16:20.328Z,79.07
2019-03-06T01:18:46.574Z,79.44
2019-03-06T01:21:12.896Z,79.42
2019-03-06T01:23:39.134Z,79.24
2019-03-06T01:26:05.360Z,79.57
2019-03-06T01:28:31.598Z,80.32
2019-03-06T01:30:57.827Z,79.66
2019-03-06T01:33:43.825Z,79.45
2019-03-06T01:39:17.578Z,79.16
2019-03-06T01:44:51.168Z,78.82
2019-03-06T01:47:17.408Z,79.41
2019-03-06T01:49:43.655Z,79.97
2019-03-06T01:52:09.879Z,79.32
2019-03-06T01:54:36.112Z,78.88
2019-03-06T01:57:02.373Z,78.80
2019-03-06T01:59:30.527Z,79.42
2019-03-06T02:01:56.781Z,78.58
2019-03-06T02:04:23.008Z,78.29
2019-03-06T02:06:49.243Z,77.73
2019-03-06T02:12:28.653Z,77.80
2019-03-06T02:14:54.877Z,77.26
2019-03-06T02:17:21.113Z,78.06
2019-03-06T02:19:47.537Z,77.08
2019-03-06T02:22:13.772Z,76.53
2019-03-06T02:24:40.010Z,77.51
2019-03-06T02:27:06.254Z,77.95
2019-03-06T02:29:32.483Z,77.98
2019-03-06T02:31:58.754Z,77.69
2019-03-06T02:34:25.000Z,77.14
2019-03-06T02:36:51.294Z,77.67
2019-03-06T02:39:17.527Z,77.60
2019-03-06T02:41:43.845Z,77.87
2019-03-06T02:44:10.089Z,77.16
2019-03-06T02:46:36.333Z,77.32
2019-03-06T02:49:02.570Z,77.27
2019-03-06T02:51:30.703Z,77.07
2019-03-06T02:53:56.927Z,75.67
2019-03-06T02:56:23.164Z,75.41
2019-03-06T02:59:09.161Z,75.42
2019-03-06T03:01:55.163Z,75.92
2019-03-06T03:04:41.141Z,74.85
2019-03-06T03:09:44.905Z,74.76
2019-03-06T03:12:11.177Z,74.53
2019-03-06T03:14:37.407Z,75.03
2019-03-06T03:17:44.951Z,75.06
2019-03-06T03:23:11.908Z,76.44
2019-03-06T03:25:38.135Z,76.60
2019-03-06T03:28:04.380Z,75.75
2019-03-06T03:30:30.607Z,75.72
2019-03-06T03:32:56.865Z,76.19
2019-03-06T03:35:23.072Z,76.05
2019-03-06T03:37:49.334Z,75.40
2019-03-06T03:40:15.552Z,75.75
2019-03-06T03:42:41.775Z,74.66
2019-03-06T03:45:49.316Z,75.25
2019-03-06T03:48:15.562Z,75.43
2019-03-06T03:50:41.783Z,75.56
2019-03-06T03:53:08.021Z,75.32
2019-03-06T03:55:34.249Z,75.38
2019-03-06T03:58:00.480Z,74.97
2019-03-06T04:00:26.720Z,74.95
2019-03-06T04:02:53.146Z,73.92
2019-03-06T04:05:19.393Z,74.54
2019-03-06T04:07:45.612Z,73.77
2019-03-06T04:10:53.151Z,73.93
2019-03-06T04:13:19.379Z,74.85
2019-03-06T04:18:23.222Z,74.18
2019-03-06T04:20:49.460Z,75.67
2019-03-06T04:23:17.621Z,75.68
2019-03-06T04:25:43.850Z,75.04
2019-03-06T04:28:10.076Z,75.19
2019-03-06T04:30:36.313Z,75.67
2019-03-06T04:33:02.545Z,75.68
2019-03-06T04:35:28.778Z,76.59
2019-03-06T04:37:55.011Z,76.20
2019-03-06T04:40:21.253Z,76.85
2019-03-06T04:42:47.475Z,77.11
2019-03-06T04:45:55.023Z,77.21
2019-03-06T04:48:21.245Z,77.58
2019-03-06T04:50:47.496Z,77.39
2019-03-06T04:53:13.723Z,77.80
2019-03-06T04:55:39.969Z,76.78
2019-03-06T04:58:06.264Z,76.70
2019-03-06T05:00:34.381Z,76.46
2019-03-06T05:03:07.369Z,76.00
2019-03-06T05:05:33.613Z,77.06
2019-03-06T05:07:59.841Z,76.60
2019-03-06T05:10:26.083Z,77.28
2019-03-06T05:12:52.305Z,75.91
2019-03-06T05:15:18.646Z,75.79
2019-03-06T05:20:32.479Z,76.02
2019-03-06T05:22:58.700Z,76.23
2019-03-06T05:25:26.856Z,75.83
2019-03-06T05:27:53.088Z,76.27
2019-03-06T05:33:28.647Z,74.80
2019-03-06T05:36:34.292Z,74.91
2019-03-06T05:39:20.472Z,73.81
2019-03-06T05:41:46.718Z,74.24
2019-03-06T05:44:12.940Z,74.28
2019-03-06T05:46:39.183Z,74.33
2019-03-06T05:49:05.606Z,73.66
2019-03-06T05:51:31.868Z,74.04
2019-03-06T05:53:58.095Z,73.95
2019-03-06T05:56:24.310Z,74.21
2019-03-06T05:58:50.576Z,74.49
2019-03-06T06:01:16.804Z,74.13
2019-03-06T06:03:43.238Z,73.85
2019-03-06T06:06:09.475Z,73.75
2019-03-06T06:08:35.714Z,73.40
2019-03-06T06:11:01.938Z,73.56
2019-03-06T06:13:28.187Z,74.30
2019-03-06T06:15:54.419Z,74.79
2019-03-06T06:18:20.652Z,74.55
2019-03-06T06:23:54.240Z,75.11
2019-03-06T06:26:20.668Z,74.88
2019-03-06T06:28:46.905Z,74.86
2019-03-06T06:31:13.138Z,73.27
2019-03-06T06:33:39.381Z,73.24
2019-03-06T06:36:05.608Z,73.86
2019-03-06T06:38:31.848Z,74.50
2019-03-06T06:40:59.975Z,75.13
2019-03-06T06:43:26.215Z,75.39
2019-03-06T06:45:52.471Z,76.26
2019-03-06T06:49:00.011Z,75.68
2019-03-06T06:52:05.739Z,75.70
2019-03-06T06:55:11.677Z,75.18
2019-03-06T06:58:17.432Z,76.25
2019-03-06T07:04:35.985Z,75.96
2019-03-06T07:07:21.973Z,75.93
2019-03-06T07:10:07.960Z,76.55
2019-03-06T07:12:53.962Z,76.29
2019-03-06T07:15:40.087Z,76.13
2019-03-06T07:18:26.271Z,75.20
2019-03-06T07:21:12.262Z,75.21
2019-03-06T07:23:58.242Z,75.63
2019-03-06T07:26:44.233Z,74.58
2019-03-06T07:29:30.208Z,75.83
2019-03-06T07:34:53.664Z,72.20
2019-03-06T07:37:39.661Z,70.13
2019-03-06T07:46:16.604Z,67.45
2019-03-06T07:49:02.596Z,67.26
2019-03-06T07:51:48.581Z,64.38
2019-03-06T07:54:34.579Z,64.33
2019-03-06T07:57:20.581Z,62.63
2019-03-06T07:59:46.827Z,63.06
2019-03-06T08:02:52.566Z,62.01
2019-03-06T08:05:19.007Z,61.65
2019-03-06T08:07:46.375Z,60.25
2019-03-06T08:10:54.707Z,63.02
2019-03-06T08:19:02.427Z,57.26
2019-03-06T08:24:22.704Z,58.64
2019-03-06T08:26:48.949Z,58.15
2019-03-06T08:29:15.180Z,59.75
2019-03-06T08:34:15.274Z,57.76
2019-03-06T08:36:41.547Z,54.74
2019-03-06T08:39:27.562Z,57.51
2019-03-06T08:41:53.792Z,56.06
2019-03-06T08:44:20.044Z,57.22
2019-03-06T08:47:06.253Z,52.94
2019-03-06T08:49:52.259Z,55.64
2019-03-06T08:52:38.263Z,52.81
2019-03-06T08:55:45.837Z,50.93
2019-03-06T08:58:32.056Z,53.44
2019-03-06T09:02:00.940Z,56.54
2019-03-06T09:04:45.462Z,53.91
2019-03-06T09:07:31.758Z,55.50
2019-03-06T09:10:17.756Z,53.49
2019-03-06T09:13:03.743Z,56.45
2019-03-06T09:15:49.749Z,55.79
2019-03-06T09:24:00.921Z,52.66
2019-03-06T09:26:46.925Z,54.10
2019-03-06T09:29:32.920Z,53.20
2019-03-06T09:34:56.479Z,54.32
2019-03-06T09:40:16.371Z,52.98
2019-03-06T09:43:02.368Z,52.63
2019-03-06T09:45:48.561Z,52.09
2019-03-06T09:48:34.581Z,50.06
2019-03-06T09:51:20.555Z,51.32
2019-03-06T09:54:01.518Z,49.62
2019-03-06T10:04:43.208Z,48.09
2019-03-06T10:07:29.199Z,50.11
2019-03-06T10:10:15.205Z,48.23
2019-03-06T10:15:35.391Z,51.96
2019-03-06T10:20:49.232Z,52.00
2019-03-06T10:23:15.455Z,47.22
2019-03-06T10:25:41.698Z,47.88
2019-03-06T10:28:07.922Z,50.74
2019-03-06T10:30:34.265Z,50.44
2019-03-06T10:33:00.500Z,49.43
2019-03-06T10:35:26.765Z,46.87
2019-03-06T10:37:54.892Z,49.30
2019-03-06T10:40:21.128Z,51.95
2019-03-06T10:42:47.362Z,49.51
2019-03-06T10:45:54.994Z,46.31
2019-03-06T10:48:21.216Z,49.05
2019-03-06T10:50:47.456Z,46.34
2019-03-06T10:53:13.681Z,45.12
2019-03-06T10:55:39.916Z,42.21
2019-03-06T11:01:13.513Z,47.24
2019-03-06T11:06:27.354Z,44.93
2019-03-06T11:08:53.580Z,45.12
2019-03-06T11:11:19.816Z,43.33
2019-03-06T11:13:46.047Z,44.49
2019-03-06T11:16:17.982Z,45.58
2019-03-06T11:18:42.450Z,46.94
2019-03-06T11:21:08.695Z,42.74
2019-03-06T11:23:34.919Z,45.01
2019-03-06T11:26:42.458Z,44.00
2019-03-06T11:32:22.211Z,42.33
2019-03-06T11:34:48.435Z,44.64
2019-03-06T11:37:14.671Z,40.83
2019-03-06T11:39:40.897Z,41.88
2019-03-06T11:42:48.494Z,41.27
2019-03-06T11:48:28.279Z,42.37
2019-03-06T11:50:54.508Z,44.30
2019-03-06T11:53:20.835Z,43.31
2019-03-06T11:55:47.081Z,43.60
2019-03-06T11:58:33.081Z,45.00
2019-03-06T12:00:59.407Z,47.52
2019-03-06T12:03:25.851Z,46.48
2019-03-06T12:05:52.276Z,46.92
2019-03-06T12:08:59.817Z,42.65
2019-03-06T12:14:27.384Z,43.86
2019-03-06T12:16:53.624Z,46.70
2019-03-06T12:20:07.893Z,45.04
2019-03-06T12:22:29.322Z,44.97
2019-03-06T12:24:55.539Z,46.07
2019-03-06T12:27:21.768Z,44.33
2019-03-06T12:29:48.003Z,43.53
2019-03-06T12:32:14.232Z,46.61
2019-03-06T12:34:40.476Z,46.63
2019-03-06T12:37:06.734Z,44.42
2019-03-06T12:39:32.965Z,43.78
2019-03-06T12:41:59.181Z,45.94
2019-03-06T12:44:25.439Z,45.68
2019-03-06T12:49:30.803Z,45.11
2019-03-06T12:51:57.029Z,44.64
2019-03-06T12:54:23.269Z,45.15
2019-03-06T12:56:49.493Z,42.00
2019-03-06T12:59:15.745Z,44.24
2019-03-06T13:01:42.169Z,45.48
2019-03-06T13:04:08.406Z,44.93
2019-03-06T13:06:34.635Z,45.73
2019-03-06T13:09:42.172Z,45.96
2019-03-06T13:12:20.243Z,45.52
2019-03-06T13:14:46.486Z,47.28
2019-03-06T13:17:12.705Z,45.75
2019-03-06T13:19:38.968Z,44.21
2019-03-06T13:22:11.081Z,47.26
2019-03-06T13:24:33.336Z,47.44
2019-03-06T13:26:59.655Z,45.96
2019-03-06T13:29:26.002Z,45.25
2019-03-06T13:31:52.250Z,46.88
2019-03-06T13:37:06.092Z,45.57
2019-03-06T13:39:34.257Z,46.78
2019-03-06T13:42:00.491Z,46.28
2019-03-06T13:44:26.719Z,47.39
2019-03-06T13:46:52.959Z,48.56
2019-03-06T13:49:19.179Z,46.39
2019-03-06T13:51:45.427Z,48.52
2019-03-06T13:54:11.651Z,47.88
2019-03-06T13:56:38.555Z,47.31
2019-03-06T13:59:06.055Z,47.44
2019-03-06T14:01:32.306Z,48.65
2019-03-06T14:03:58.654Z,49.51
2019-03-06T14:09:18.589Z,50.08
2019-03-06T14:11:45.047Z,50.24
2019-03-06T14:14:11.286Z,50.22
2019-03-06T14:16:37.549Z,49.16
2019-03-06T14:22:11.151Z,49.71
2019-03-06T14:24:37.386Z,50.08
2019-03-06T14:27:44.922Z,50.16
2019-03-06T14:30:31.605Z,49.49
2019-03-06T14:32:57.856Z,50.46
2019-03-06T14:38:38.223Z,50.90
2019-03-06T14:41:04.542Z,50.21
2019-03-06T14:43:30.781Z,51.45
2019-03-06T14:45:57.011Z,51.46
2019-03-06T14:48:25.157Z,51.43
2019-03-06T14:50:51.392Z,50.13
2019-03-06T14:53:17.629Z,49.35
2019-03-06T14:55:43.859Z,50.02
2019-03-06T15:04:05.453Z,50.83
2019-03-06T15:06:31.692Z,51.36
2019-03-06T15:08:58.127Z,52.00
2019-03-06T15:11:32.778Z,52.39
2019-03-06T15:13:52.514Z,52.32
2019-03-06T15:16:18.732Z,52.54
2019-03-06T15:18:44.983Z,52.84
2019-03-06T15:21:11.204Z,52.90
2019-03-06T15:24:18.755Z,53.01
2019-03-06T15:26:44.986Z,53.03
2019-03-06T15:29:52.532Z,52.84
2019-03-06T15:32:18.771Z,52.72
2019-03-06T15:34:45.016Z,53.13
2019-03-06T15:37:11.254Z,53.41
2019-03-06T15:39:45.674Z,53.67
2019-03-06T15:48:19.850Z,54.94
2019-03-06T15:50:46.078Z,55.52
2019-03-06T15:53:53.627Z,55.86
2019-03-06T15:56:19.968Z,56.20
2019-03-06T15:58:46.240Z,56.72
2019-03-06T16:01:12.484Z,57.31
2019-03-06T16:03:38.851Z,58.10
2019-03-06T16:08:52.696Z,58.03
2019-03-06T16:11:19.808Z,58.22
2019-03-06T16:13:47.128Z,57.83
2019-03-06T16:16:13.367Z,57.62
2019-03-06T16:18:39.720Z,57.88
2019-03-06T16:21:47.276Z,57.91
2019-03-06T16:24:13.524Z,57.94
2019-03-06T16:26:39.762Z,57.74
2019-03-06T16:29:06.000Z,57.74
2019-03-06T16:31:32.249Z,57.52
2019-03-06T16:33:58.495Z,57.64
2019-03-06T16:36:24.844Z,57.53
2019-03-06T16:38:51.084Z,58.21
2019-03-06T16:41:17.329Z,57.94
2019-03-06T16:43:43.564Z,57.99
2019-03-06T16:46:10.036Z,58.12
2019-03-06T16:48:36.273Z,57.61
2019-03-06T16:53:56.864Z,58.03
2019-03-06T16:56:23.114Z,58.33
2019-03-06T16:58:49.347Z,57.83
2019-03-06T17:01:15.703Z,57.67
2019-03-06T17:03:41.938Z,57.04
2019-03-06T17:06:08.200Z,56.97
2019-03-06T17:08:34.435Z,56.57
2019-03-06T17:11:00.700Z,56.04
2019-03-06T17:13:26.948Z,55.83
2019-03-06T17:15:55.103Z,56.12
2019-03-06T17:18:21.336Z,56.63
2019-03-06T17:20:47.569Z,56.48
2019-03-06T17:23:13.833Z,56.94
2019-03-06T17:28:34.205Z,58.23
2019-03-06T17:31:00.553Z,58.32
2019-03-06T17:33:26.786Z,58.52
2019-03-06T17:35:53.021Z,58.99
2019-03-06T17:38:19.576Z,59.37
2019-03-06T17:40:47.429Z,59.69
2019-03-06T17:43:13.683Z,59.27
2019-03-06T17:48:55.797Z,59.04
2019-03-06T17:51:22.235Z,59.43
2019-03-06T17:53:48.485Z,59.84
2019-03-06T17:56:14.715Z,59.90
2019-03-06T17:58:40.970Z,59.91
2019-03-06T18:06:28.856Z,60.93
2019-03-06T18:08:55.104Z,61.50
2019-03-06T18:11:21.438Z,62.40
2019-03-06T18:13:47.684Z,61.81
2019-03-06T18:16:13.922Z,62.19
2019-03-06T18:18:40.169Z,62.28
2019-03-06T18:21:06.437Z,62.36
2019-03-06T18:23:34.318Z,63.27
2019-03-06T18:26:00.819Z,63.24
2019-03-06T18:28:27.069Z,63.24
2019-03-06T18:30:53.308Z,63.71
2019-03-06T18:33:19.553Z,64.42
2019-03-06T18:35:45.784Z,63.91
2019-03-06T18:38:12.041Z,63.97
2019-03-06T18:40:38.276Z,64.13
2019-03-06T18:43:45.841Z,64.47
2019-03-06T18:46:12.085Z,64.50
2019-03-06T18:48:38.336Z,64.71
2019-03-06T18:51:04.662Z,64.69
2019-03-06T18:53:30.905Z,64.96
2019-03-06T18:55:57.138Z,65.24
2019-03-06T18:58:23.431Z,65.87
2019-03-06T19:00:49.661Z,66.55
2019-03-06T19:03:57.201Z,66.68
2019-03-06T19:06:23.440Z,66.16
2019-03-06T19:08:49.686Z,66.58
2019-03-06T19:11:17.204Z,67.13
2019-03-06T19:13:44.108Z,67.03
2019-03-06T19:16:10.332Z,66.56
2019-03-06T19:18:36.671Z,66.24
2019-03-06T19:21:02.909Z,66.76
2019-03-06T19:23:29.144Z,68.01
2019-03-06T19:25:55.392Z,69.97
2019-03-06T19:28:21.620Z,68.57
2019-03-06T19:30:47.856Z,68.78
2019-03-06T19:33:14.080Z,69.72
2019-03-06T19:35:40.329Z,69.63
2019-03-06T19:38:06.773Z,69.83
2019-03-06T19:40:33.548Z,69.70
2019-03-06T19:43:01.152Z,69.82
2019-03-06T19:45:27.397Z,70.25
2019-03-06T19:47:53.620Z,70.77
2019-03-06T19:50:39.611Z,70.07
2019-03-06T19:53:06.152Z,71.01
2019-03-06T19:55:32.392Z,70.97
2019-03-06T19:58:39.941Z,72.00
2019-03-06T20:01:06.377Z,70.70
2019-03-06T20:03:32.609Z,71.42
2019-03-06T20:05:58.849Z,71.61
2019-03-06T20:08:25.077Z,73.20
2019-03-06T20:10:51.315Z,72.92
2019-03-06T20:13:17.543Z,72.73
2019-03-06T20:15:43.883Z,72.57
2019-03-06T20:21:17.472Z,73.40
2019-03-06T20:23:43.711Z,74.12
2019-03-06T20:26:13.981Z,75.41
2019-03-06T20:28:38.092Z,76.19
2019-03-06T20:31:04.331Z,76.15
2019-03-06T20:33:30.558Z,75.06
2019-03-06T20:35:56.814Z,74.64
2019-03-06T20:38:23.044Z,76.19
2019-03-06T20:40:49.281Z,75.68
2019-03-06T20:43:15.522Z,73.95
2019-03-06T20:45:41.748Z,73.66
2019-03-06T20:48:07.991Z,73.36
2019-03-06T20:50:36.145Z,73.34
2019-03-06T20:53:02.383Z,73.76
2019-03-06T20:55:28.620Z,72.80
2019-03-06T20:57:55.066Z,72.85
2019-03-06T21:03:22.360Z,73.44
2019-03-06T21:05:48.590Z,73.63
2019-03-06T21:08:15.035Z,74.46
2019-03-06T21:10:41.399Z,76.39
2019-03-06T21:13:07.644Z,76.21
2019-03-06T21:15:33.888Z,76.05
2019-03-06T21:18:00.135Z,74.75
2019-03-06T21:20:26.381Z,75.09
2019-03-06T21:22:52.628Z,74.59
2019-03-06T21:26:00.152Z,74.10
2019-03-06T21:28:26.399Z,74.57
2019-03-06T21:30:52.628Z,77.44
2019-03-06T21:33:18.868Z,77.99
2019-03-06T21:35:45.118Z,76.51
2019-03-06T21:38:13.412Z,76.09
2019-03-06T21:40:39.644Z,76.53
2019-03-06T21:43:05.883Z,77.09
2019-03-06T21:45:33.843Z,75.65
2019-03-06T21:48:00.262Z,75.83
2019-03-06T21:50:26.964Z,75.11
2019-03-06T21:52:53.332Z,76.51
2019-03-06T21:55:19.555Z,75.57
2019-03-06T21:57:47.773Z,75.96
2019-03-06T22:00:55.506Z,76.61
2019-03-06T22:03:21.749Z,76.65
2019-03-06T22:05:49.894Z,76.55
2019-03-06T22:08:16.134Z,76.15
2019-03-06T22:10:42.361Z,76.19
2019-03-06T22:13:08.592Z,76.89
2019-03-06T22:15:35.022Z,75.98
2019-03-06T22:18:01.246Z,75.90
2019-03-06T22:20:27.492Z,76.70
2019-03-06T22:22:53.728Z,76.26
2019-03-06T22:25:19.969Z,76.17
2019-03-06T22:27:46.181Z,76.49
2019-03-06T22:30:32.173Z,76.64
2019-03-06T22:32:59.640Z,78.17
2019-03-06T22:35:26.547Z,80.14
2019-03-06T22:37:52.775Z,77.87
2019-03-06T22:41:00.318Z,77.69
2019-03-06T22:43:26.544Z,79.40
2019-03-06T22:45:52.781Z,79.98
2019-03-06T22:48:19.008Z,78.76
2019-03-06T22:50:45.249Z,78.27
2019-03-06T22:53:11.474Z,77.87
2019-03-06T22:55:37.714Z,78.47
2019-03-06T22:58:03.949Z,79.55
2019-03-06T23:01:11.512Z,79.91
2019-03-06T23:03:37.739Z,79.15
2019-03-06T23:06:04.091Z,78.22
2019-03-06T23:08:30.316Z,78.33
2019-03-06T23:10:56.568Z,77.44
2019-03-06T23:13:22.997Z,77.62
2019-03-06T23:15:49.232Z,76.92
2019-03-06T23:18:15.464Z,77.49
2019-03-06T23:20:41.702Z,78.64
2019-03-06T23:23:07.931Z,80.27
2019-03-06T23:25:34.179Z,78.63
2019-03-06T23:28:00.390Z,78.32
2019-03-06T23:30:28.532Z,79.09
2019-03-06T23:32:54.770Z,78.88
2019-03-06T23:35:21.005Z,79.05
2019-03-06T23:37:47.236Z,78.41
2019-03-06T23:40:13.771Z,80.03
2019-03-06T23:42:40.046Z,78.49
2019-03-06T23:45:47.585Z,77.77
2019-03-06T23:48:13.823Z,78.49
2019-03-06T23:50:40.066Z,79.32
2019-03-06T23:55:53.899Z,79.12
2019-03-06T23:58:20.132Z,79.93
